Flight Track Log - Related Links

Times and Time Zones

All times are in EDT time to prevent confusion due to time zone crossing. See the DAL268 flight status page for this flight to view local times or setup timezone preferences in your user account.

Time Position Orientation Groundspeed Altitude Reporting Facility
EDT Latitude Longitude Course Direction KTS MPH feet Rate Location/Type
Sun 02:27:59 PM 37.6708 -122.3040 52° Northeast 242 278 2,800  Level FlightAware ADS-B
Sun 02:28:06 PM 37.6769 -122.2970 42° Northeast 245 282 3,000 2,182 Climbing FlightAware ADS-B
Sun 02:28:10 PM 37.6809 -122.2940 31° Northeast 250 288 3,200 2,182 Climbing FlightAware ADS-B
Sun 02:28:17 PM 37.6885 -122.2890 28° Northeast 255 293 3,400 2,143 Climbing FlightAware ADS-B
Sun 02:28:24 PM 37.6956 -122.2860 18° North 257 296 3,700 2,471 Climbing FlightAware ADS-B
Sun 02:28:34 PM 37.7065 -122.2800 24° Northeast 262 302 4,100 2,640 Climbing FlightAware ADS-B
Sun 02:28:49 PM 37.7240 -122.2730 18° North 269 310 4,800 1,456 Climbing FlightAware ADS-B
Sun 02:30:17 PM 37.7788 -122.2520 17° North 298 343 6,600 2,621 Climbing FlightAware ADS-B
Sun 02:30:32 PM 37.8616 -122.2230 15° North 316 364 9,300 6,364 Climbing FlightAware ADS-B
Sun 02:30:50 PM 37.8866 -122.2140 16° North 320 368 10,100 2,640 Climbing FlightAware ADS-B
Sun 02:30:57 PM 37.8967 -122.2090 21° North 323 372 10,400 2,182 Climbing FlightAware ADS-B
Sun 02:31:01 PM 37.9020 -122.2060 24° Northeast 324 373 10,500 1,084 Climbing FlightAware ADS-B
Sun 02:32:20 PM 37.9786 -122.1230 40° Northeast 385 443 11,900 1,364 Climbing FlightAware ADS-B
Sun 02:33:13 PM 38.0697 -122.0108 40° Northeast 412 474 13,500 1,930 Climbing Oakland Center
Sun 02:34:15 PM 38.1564 -121.9053 44° Northeast 432 497 15,600 1,984 Climbing Oakland Center
Sun 02:35:17 PM 38.2456 -121.7956 44° Northeast 445 512 17,600 1,902 Climbing Oakland Center
Sun 02:36:18 PM 38.3364 -121.6828 44° Northeast 456 525 19,500 1,756 Climbing Oakland Center
Sun 02:37:20 PM 38.4361 -121.5714 41° Northeast 468 539 21,200 1,548 Climbing Oakland Center
Sun 02:38:22 PM 38.5372 -121.4572 41° Northeast 484 557 22,700 1,452 Climbing Oakland Center
Sun 02:39:24 PM 38.6461 -121.3458 39° Northeast 500 575 24,200 1,463 Climbing Oakland Center
Sun 02:40:25 PM 38.7686 -121.2292 37° Northeast 506 582 25,700 1,355 Climbing Oakland Center
Sun 02:41:28 PM 38.8858 -121.1175 37° Northeast 518 596 27,000 1,355 Climbing Oakland Center
Sun 02:42:29 PM 38.9989 -120.9961 40° Northeast 528 608 28,500 1,659 Climbing Oakland Center
Sun 02:43:31 PM 39.0889 -120.7994 59° Northeast 528 608 30,400 1,645 Climbing Oakland Center
Sun 02:44:33 PM 39.1542 -120.6286 64° Northeast 527 606 31,900 1,366 Climbing Oakland Center
Sun 02:45:34 PM 39.2208 -120.4631 62° Northeast 522 601 33,200 1,561 Climbing Oakland Center
Sun 02:46:36 PM 39.2850 -120.3000 63° Northeast 513 590 35,100 1,113 Climbing Oakland Center
Sun 02:47:38 PM 39.3478 -120.1378 63° Northeast 506 582 35,500 629 Climbing Oakland Center
Sun 02:48:40 PM 39.4164 -119.9708 62° Northeast 518 596 36,400 732 Climbing Oakland Center
Sun 02:49:41 PM 39.4792 -119.8031 64° Northeast 520 598 37,000 293 Climbing Oakland Center
Sun 02:50:43 PM 39.5475 -119.6367 62° Northeast 522 601 37,000  Level Oakland Center
Sun 02:51:45 PM 39.6219 -119.4406 64° Northeast 510 587 37,000  Level Oakland Center
Sun 02:52:47 PM 39.6875 -119.2750 63° Northeast 512 589 37,000  Level Oakland Center
Sun 02:53:48 PM 39.7519 -119.1092 63° Northeast 511 588 37,000  Level Oakland Center
Sun 02:54:50 PM 39.8164 -118.9431 63° Northeast 510 587 37,000  Level Oakland Center
Sun 02:55:52 PM 39.8817 -118.7744 63° Northeast 515 593 37,000  Level Oakland Center
Sun 02:56:53 PM 39.9444 -118.6069 64° Northeast 512 589 37,000  Level Oakland Center
Sun 02:57:55 PM 40.0089 -118.4392 63° Northeast 514 592 37,000  Level Oakland Center
Sun 02:58:57 PM 40.0714 -118.2733 64° Northeast 510 587 37,000  Level Oakland Center
Sun 02:59:58 PM 40.1331 -118.1072 64° Northeast 508 585 37,000  Level Oakland Center
Sun 03:01:00 PM 40.1956 -117.9417 64° Northeast 506 582 37,000  Level Oakland Center
Sun 03:02:00 PM 40.2597 -117.7692 64° Northeast 503 579 37,000  Level Salt Lake Center
Sun 03:03:02 PM 40.3267 -117.5861 64° Northeast 500 575 37,000  Level Salt Lake Center
Sun 03:04:04 PM 40.3850 -117.4281 64° Northeast 500 575 37,000  Level Salt Lake Center
Sun 03:05:06 PM 40.4533 -117.2450 64° Northeast 498 573 37,000  Level Salt Lake Center
Sun 03:11:10 PM 40.7607 -116.2120 64° Northeast 498 573 37,000  Level FlightAware ADS-B
Sun 03:11:43 PM 40.7870 -116.1140 70° East 496 571 37,000  Level FlightAware ADS-B
Sun 03:13:14 PM 40.8553 -115.8560 71° East 494 568 37,000  Level FlightAware ADS-B
Sun 03:15:37 PM 40.9614 -115.4480 71° East 493 567 37,000  Level FlightAware ADS-B
Sun 03:16:07 PM 40.9835 -115.3630 71° East 492 566 37,000  Level FlightAware ADS-B
Sun 03:17:27 PM 41.0413 -115.1370 71° East 490 564 37,000  Level FlightAware ADS-B
Sun 03:17:57 PM 41.0633 -115.0510 71° East 490 564 37,000  Level FlightAware ADS-B
Sun 03:19:45 PM 41.1405 -114.7450 71° East 490 564 37,000  Level FlightAware ADS-B
Sun 03:20:16 PM 41.1619 -114.6590 72° East 490 564 37,000  Level FlightAware ADS-B
Sun 03:20:47 PM 41.1834 -114.5730 72° East 490 564 37,000  Level FlightAware ADS-B
Sun 03:21:54 PM 41.2316 -114.3790 72° East 491 565 37,000  Level FlightAware ADS-B
Sun 03:22:24 PM 41.2531 -114.2910 72° East 491 565 37,000  Level FlightAware ADS-B
Sun 03:24:07 PM 41.3245 -113.9990 72° East 490 564 37,000  Level FlightAware ADS-B
Sun 03:24:37 PM 41.3452 -113.9140 72° East 490 564 37,000  Level FlightAware ADS-B
Sun 03:25:00 PM 41.3582 -113.8490 75° East 491 565 37,000  Level FlightAware ADS-B
Sun 03:25:14 PM 41.3637 -113.8100 79° East 492 566 37,000  Level FlightAware ADS-B
Sun 03:26:39 PM 41.3830 -113.5470 84° East 492 566 37,000  Level FlightAware ADS-B
Sun 03:27:09 PM 41.3886 -113.4570 85° East 492 566 37,000  Level FlightAware ADS-B
Sun 03:28:40 PM 41.4056 -113.1880 85° East 494 568 37,000  Level FlightAware ADS-B
Sun 03:29:10 PM 41.4109 -113.1020 85° East 494 568 37,000  Level FlightAware ADS-B
Sun 03:29:53 PM 41.4137 -113.0570 85° East 494 568 37,000  Level FlightAware ADS-B
Sun 03:31:04 PM 41.4323 -112.7480 85° East 496 571 37,000  Level FlightAware ADS-B
Sun 03:31:35 PM 41.4377 -112.6550 86° East 495 570 37,000  Level FlightAware ADS-B
Sun 03:33:18 PM 41.4551 -112.3480 86° East 492 566 37,000  Level FlightAware ADS-B
Sun 03:33:49 PM 41.4606 -112.2480 86° East 491 565 37,000  Level FlightAware ADS-B
Sun 03:34:19 PM 41.4654 -112.1580 86° East 491 565 37,000  Level FlightAware ADS-B
Sun 03:35:34 PM 41.4769 -111.9390 86° East 489 563 37,000  Level FlightAware ADS-B
Sun 03:36:10 PM 41.4822 -111.8350 86° East 488 562 37,000  Level FlightAware ADS-B
Sun 03:36:47 PM 41.4857 -111.7650 86° East 488 562 37,000  Level FlightAware ADS-B
Sun 03:38:38 PM 41.5039 -111.3890 86° East 484 557 37,000  Level FlightAware ADS-B
Sun 03:39:09 PM 41.5083 -111.2960 86° East 484 557 37,000  Level FlightAware ADS-B
Sun 03:39:41 PM 41.5126 -111.2000 87° East 483 556 37,000  Level FlightAware ADS-B
Sun 03:40:52 PM 41.5219 -110.9890 87° East 481 554 37,000  Level FlightAware ADS-B
Sun 03:41:24 PM 41.5260 -110.8920 87° East 481 554 37,000  Level FlightAware ADS-B
Sun 03:41:55 PM 41.5299 -110.7990 87° East 479 551 37,000  Level FlightAware ADS-B
Sun 03:43:20 PM 41.5383 -110.5725 87° East 474 545 37,000  Level Salt Lake Center
Sun 03:44:22 PM 41.5450 -110.4039 87° East 475 547 37,000  Level Salt Lake Center
Sun 03:45:24 PM 41.5528 -110.2083 87° East 474 545 37,000  Level Salt Lake Center
Sun 03:46:26 PM 41.5592 -110.0406 87° East 473 544 37,000  Level Salt Lake Center
Sun 03:47:28 PM 41.5656 -109.8456 87° East 472 543 37,000  Level Salt Lake Center
Sun 03:48:30 PM 41.5714 -109.6800 87° East 468 539 37,000  Level Salt Lake Center
Sun 03:49:31 PM 41.5775 -109.4872 88° East 465 535 37,000  Level Salt Lake Center
Sun 03:50:33 PM 41.5825 -109.3211 88° East 464 534 37,000  Level Salt Lake Center
Sun 03:51:35 PM 41.5883 -109.1550 87° East 462 532 37,000  Level Salt Lake Center
Sun 03:52:37 PM 41.5953 -108.9603 87° East 463 533 37,000  Level Salt Lake Center
Sun 03:53:39 PM 41.6075 -108.7986 84° East 457 526 37,000  Level Salt Lake Center
Sun 03:54:41 PM 41.6222 -108.6106 84° East 454 522 37,000  Level Salt Lake Center
Sun 03:55:43 PM 41.6328 -108.4500 85° East 453 521 37,000  Level Salt Lake Center
Sun 03:56:44 PM 41.6442 -108.2897 85° East 454 522 37,000  Level Salt Lake Center
Sun 03:57:46 PM 41.6578 -108.1039 84° East 451 519 37,000  Level Salt Lake Center
Sun 03:58:48 PM 41.6711 -107.9422 84° East 455 524 37,000  Level Salt Lake Center
Sun 03:59:50 PM 41.6844 -107.7553 84° East 454 522 37,000  Level Salt Lake Center
Sun 04:00:52 PM 41.6942 -107.5950 85° East 454 522 37,000  Level Salt Lake Center
Sun 04:01:54 PM 41.7072 -107.4078 85° East 456 525 37,000  Level Salt Lake Center
Sun 04:02:55 PM 41.7167 -107.2481 85° East 454 522 37,000  Level Salt Lake Center
Sun 04:03:57 PM 41.7281 -107.0614 85° East 455 524 37,000  Level Salt Lake Center
Sun 04:04:59 PM 41.7383 -106.8975 85° East 460 529 37,000 242 Level Salt Lake Center
Sun 04:06:01 PM 41.7494 -106.7047 86° East 465 535 37,500 484 Climbing Salt Lake Center
Sun 04:07:03 PM 41.7572 -106.5372 86° East 463 533 38,000 484 Climbing Salt Lake Center
Sun 04:08:05 PM 41.7658 -106.3667 86° East 477 549 38,500 484 Climbing Salt Lake Center
Sun 04:09:07 PM 41.7772 -106.1681 86° East 480 552 39,000 208 Climbing Salt Lake Center
Sun 04:10:29 PM 41.7911 -105.9392 85° East 485 558 39,000  Level Denver Center
Sun 04:11:31 PM 41.8022 -105.7389 86° East 485 558 39,000  Level Denver Center
Sun 04:12:33 PM 41.8119 -105.5689 86° East 482 555 39,000  Level Denver Center
Sun 04:13:35 PM 41.8208 -105.3672 87° East 485 558 39,000  Level Denver Center
Sun 04:14:37 PM 41.8278 -105.1950 87° East 485 558 39,000  Level Denver Center
Sun 04:15:39 PM 41.8369 -104.9936 86° East 486 559 39,000  Level Denver Center
Sun 04:16:41 PM 41.8442 -104.8225 87° East 484 557 39,000  Level Denver Center
Sun 04:17:43 PM 41.8522 -104.6275 87° East 473 544 39,000  Level Denver Center
Sun 04:18:45 PM 41.8592 -104.4581 87° East 477 549 39,000  Level Denver Center
Sun 04:19:47 PM 41.8658 -104.2603 87° East 477 549 39,000  Level Denver Center
Sun 04:20:49 PM 41.8731 -104.0908 87° East 478 550 39,000  Level Denver Center
Sun 04:21:51 PM 41.8792 -103.8919 88° East 480 552 39,000  Level Denver Center
Sun 04:22:54 PM 41.8847 -103.7219 87° East 479 551 39,000  Level Denver Center
Sun 04:23:56 PM 41.8925 -103.5203 87° East 485 558 39,000  Level Denver Center
Sun 04:24:58 PM 41.9114 -103.3525 81° East 478 550 39,000  Level Denver Center
Sun 04:26:00 PM 41.9383 -103.1575 79° East 478 550 39,000  Level Denver Center
Sun 04:27:02 PM 41.9631 -102.9900 79° East 478 550 39,000  Level Denver Center
Sun 04:28:04 PM 41.9886 -102.7961 80° East 475 547 39,000  Level Denver Center
Sun 04:29:06 PM 42.0117 -102.6283 79° East 476 548 39,000  Level Denver Center
Sun 04:30:08 PM 42.0372 -102.4342 80° East 474 545 39,000  Level Denver Center
Sun 04:31:10 PM 42.0611 -102.2661 79° East 477 549 39,000  Level Denver Center
Sun 04:32:12 PM 42.0842 -102.0864 80° East 475 547 39,000  Level Denver Center
Sun 04:33:14 PM 42.1097 -101.8911 80° East 474 545 39,000  Level Denver Center
Sun 04:34:16 PM 42.1306 -101.7219 81° East 476 548 39,000  Level Denver Center
Sun 04:35:18 PM 42.1525 -101.5544 80° East 476 548 39,000  Level Denver Center
Sun 04:36:20 PM 42.1753 -101.3583 81° East 474 545 39,000  Level Denver Center
Sun 04:37:22 PM 42.1972 -101.1900 80° East 475 547 39,000  Level Denver Center
Sun 04:43:49 PM 42.3313 -100.0210 80° East 481 554 39,000  Level FlightAware ADS-B
Sun 04:44:19 PM 42.3412 -99.9313 81° East 482 555 39,000  Level FlightAware ADS-B
Sun 04:45:48 PM 42.3697 -99.6675 82° East 482 555 39,000  Level FlightAware ADS-B
Sun 04:46:18 PM 42.3794 -99.5772 82° East 484 557 39,000  Level FlightAware ADS-B
Sun 04:46:48 PM 42.3889 -99.4873 82° East 484 557 39,000  Level FlightAware ADS-B
Sun 04:50:09 PM 42.4443 -98.8871 83° East 481 554 39,000  Level FlightAware ADS-B
Sun 04:50:39 PM 42.4497 -98.7973 85° East 482 555 39,000  Level FlightAware ADS-B
Sun 04:51:09 PM 42.4553 -98.7072 85° East 481 554 39,000  Level FlightAware ADS-B
Sun 04:52:18 PM 42.4688 -98.5006 85° East 481 554 39,000  Level FlightAware ADS-B
Sun 04:52:48 PM 42.4747 -98.4095 85° East 481 554 39,000  Level FlightAware ADS-B
Sun 04:53:19 PM 42.4805 -98.3186 85° East 480 552 39,000  Level FlightAware ADS-B
Sun 04:54:30 PM 42.4933 -98.1091 85° East 481 554 39,000  Level FlightAware ADS-B
Sun 04:55:00 PM 42.4989 -98.0154 85° East 481 554 39,000  Level FlightAware ADS-B
Sun 04:55:30 PM 42.5042 -97.9250 85° East 482 555 39,000  Level FlightAware ADS-B
Sun 04:56:40 PM 42.5156 -97.7264 85° East 482 555 39,000  Level FlightAware ADS-B
Sun 04:57:10 PM 42.5213 -97.6257 86° East 483 556 39,000  Level FlightAware ADS-B
Sun 04:57:41 PM 42.5264 -97.5337 86° East 484 557 39,000  Level FlightAware ADS-B
Sun 04:58:50 PM 42.5378 -97.3248 86° East 487 560 39,000  Level FlightAware ADS-B
Sun 04:59:20 PM 42.5426 -97.2327 86° East 488 562 39,000  Level FlightAware ADS-B
Sun 04:59:50 PM 42.5474 -97.1396 86° East 488 562 39,000  Level FlightAware ADS-B
Sun 05:01:00 PM 42.5581 -96.9278 86° East 490 564 39,000  Level FlightAware ADS-B
Sun 05:01:30 PM 42.5627 -96.8353 86° East 491 565 39,000  Level FlightAware ADS-B
Sun 05:03:10 PM 42.5773 -96.5281 86° East 493 567 39,000  Level FlightAware ADS-B
Sun 05:03:40 PM 42.5815 -96.4353 86° East 495 570 39,000  Level FlightAware ADS-B
Sun 05:04:11 PM 42.5858 -96.3398 86° East 495 570 39,000  Level FlightAware ADS-B
Sun 05:05:20 PM 42.5951 -96.1261 87° East 497 572 39,000  Level FlightAware ADS-B
Sun 05:05:50 PM 42.5992 -96.0322 87° East 498 573 39,000  Level FlightAware ADS-B
Sun 05:06:21 PM 42.6031 -95.9374 87° East 498 573 39,000  Level FlightAware ADS-B
Sun 05:07:30 PM 42.6118 -95.7207 87° East 499 574 39,000  Level FlightAware ADS-B
Sun 05:08:00 PM 42.6153 -95.6275 87° East 499 574 39,000  Level FlightAware ADS-B
Sun 05:08:31 PM 42.6189 -95.5321 87° East 499 574 39,000  Level FlightAware ADS-B
Sun 05:09:41 PM 42.6269 -95.3150 87° East 500 575 39,000  Level FlightAware ADS-B
Sun 05:10:12 PM 42.6304 -95.2146 87° East 501 577 39,000  Level FlightAware ADS-B
Sun 05:10:43 PM 42.6337 -95.1201 87° East 501 577 39,000  Level FlightAware ADS-B
Sun 05:11:51 PM 42.6406 -94.9076 87° East 502 578 39,000  Level FlightAware ADS-B
Sun 05:12:23 PM 42.6438 -94.8061 88° East 502 578 39,000  Level FlightAware ADS-B
Sun 05:12:53 PM 42.6468 -94.7096 88° East 503 579 39,000  Level FlightAware ADS-B
Sun 05:14:01 PM 42.6529 -94.5000 88° East 504 580 39,000  Level FlightAware ADS-B
Sun 05:14:31 PM 42.6557 -94.4010 88° East 506 582 39,000  Level FlightAware ADS-B
Sun 05:15:02 PM 42.6584 -94.3041 88° East 506 582 39,000  Level FlightAware ADS-B
Sun 05:16:44 PM 42.6665 -93.9781 88° East 507 583 39,000  Level FlightAware ADS-B
Sun 05:17:15 PM 42.6688 -93.8812 88° East 509 586 39,000  Level FlightAware ADS-B
Sun 05:18:02 PM 42.6708 -93.7461 88° East 509 586 39,000  Level Minneapolis Center
Sun 05:19:04 PM 42.6761 -93.5553 88° East 510 587 39,000  Level Minneapolis Center
Sun 05:20:06 PM 42.6786 -93.3642 89° East 511 588 39,000  Level Minneapolis Center
Sun 05:21:08 PM 42.6828 -93.1731 88° East 512 589 39,000  Level Minneapolis Center
Sun 05:22:10 PM 42.6853 -92.9806 89° East 512 589 39,000  Level Minneapolis Center
Sun 05:23:12 PM 42.6889 -92.7492 89° East 517 595 39,000  Level Minneapolis Center
Sun 05:24:14 PM 42.6914 -92.5542 89° East 519 597 39,000  Level Minneapolis Center
Sun 05:25:16 PM 42.6931 -92.3600 89° East 519 597 39,000  Level Minneapolis Center
Sun 05:26:18 PM 42.6950 -92.1658 89° East 520 598 39,000  Level Minneapolis Center
Sun 05:27:20 PM 42.6967 -91.9317 89° East 522 601 39,000  Level Minneapolis Center
Sun 05:28:22 PM 42.6964 -91.7375 90° East 524 603 39,000  Level Minneapolis Center
Sun 05:29:24 PM 42.6989 -91.5556 89° East 528 608 39,000  Level Minneapolis Center
Sun 05:30:26 PM 42.6975 -91.3092 90° East 535 616 39,000  Level Minneapolis Center
Sun 05:31:28 PM 42.6981 -91.1131 90° East 529 609 39,000  Level Minneapolis Center
Sun 05:32:30 PM 42.6969 -90.9167 90° East 527 606 39,000  Level Minneapolis Center
Sun 05:33:32 PM 42.6961 -90.7189 90° East 527 606 39,000  Level Minneapolis Center
Sun 05:34:59 PM 42.6969 -90.4425 90° East 531 611 39,000  Level Chicago Center
Sun 05:36:01 PM 42.6947 -90.2061 91° East 529 609 39,000  Level Chicago Center
Sun 05:37:03 PM 42.6953 -90.0069 90° East 532 612 39,000  Level Chicago Center
Sun 05:38:05 PM 42.6922 -89.8081 91° East 533 613 39,000  Level Chicago Center
Sun 05:39:07 PM 42.6889 -89.6100 91° East 531 611 39,000  Level Chicago Center
Sun 05:40:09 PM 42.6861 -89.4117 91° East 530 610 39,000  Level Chicago Center
Sun 05:41:11 PM 42.6806 -89.1742 92° East 530 610 39,000  Level Chicago Center
Sun 05:42:13 PM 42.6772 -88.9733 91° East 535 616 39,000  Level Chicago Center
Sun 05:43:15 PM 42.6722 -88.7586 92° East 531 611 39,000  Level Chicago Center
Sun 05:44:18 PM 42.6675 -88.5578 92° East 534 615 39,000  Level Chicago Center
Sun 05:45:20 PM 42.6619 -88.3578 92° East 531 611 39,000  Level Chicago Center
Sun 05:46:22 PM 42.6572 -88.1564 92° East 533 613 39,000  Level Chicago Center
Sun 05:47:24 PM 42.6506 -87.9531 92° East 539 620 39,000  Level Chicago Center
Sun 05:48:26 PM 42.6442 -87.7281 92° East 536 617 39,000  Level Chicago Center
Sun 05:49:28 PM 42.6386 -87.5272 92° East 536 617 39,000  Level Chicago Center
Sun 05:50:30 PM 42.6317 -87.3250 93° East 537 618 39,000  Level Chicago Center
Sun 05:51:32 PM 42.6242 -87.1250 93° East 536 617 39,000  Level Chicago Center
Sun 05:52:34 PM 42.6147 -86.8828 93° East 536 617 39,000  Level Chicago Center
Sun 05:53:37 PM 42.6072 -86.6828 93° East 536 617 39,000  Level Chicago Center
Sun 05:54:39 PM 42.5994 -86.4836 93° East 535 616 39,000  Level Chicago Center
Sun 05:55:41 PM 42.5906 -86.2836 93° East 536 617 39,000  Level Chicago Center
Sun 05:56:43 PM 42.5794 -86.0444 94° East 535 616 39,000  Level Chicago Center
Sun 05:57:45 PM 42.5706 -85.8461 93° East 535 616 39,000  Level Chicago Center
Sun 05:58:47 PM 42.5614 -85.6475 94° East 533 613 39,000  Level Chicago Center
Sun 05:59:49 PM 42.5517 -85.4483 94° East 534 615 39,000  Level Chicago Center
Sun 06:00:51 PM 42.5422 -85.2503 94° East 533 613 39,000  Level Chicago Center
Sun 06:01:54 PM 42.5294 -85.0119 94° East 532 612 39,000  Level Chicago Center
Sun 06:02:56 PM 42.5181 -84.8122 94° East 533 613 39,000  Level Chicago Center
Sun 06:03:58 PM 42.5072 -84.6142 94° East 531 611 39,000  Level Chicago Center
Sun 06:05:00 PM 42.4947 -84.4161 95° East 531 611 39,000  Level Chicago Center
Sun 06:06:02 PM 42.4831 -84.2156 94° East 533 613 39,000  Level Chicago Center
Sun 06:07:04 PM 42.4675 -83.9786 95° East 530 610 39,000  Level Chicago Center
Sun 06:08:26 PM 42.4506 -83.7194 95° East 528 608 39,000  Level Cleveland Center
Sun 06:09:28 PM 42.4367 -83.5169 95° East 529 609 39,000  Level Cleveland Center
Sun 06:10:30 PM 42.4233 -83.3194 95° East 532 612 39,000  Level Cleveland Center
Sun 06:11:32 PM 42.4081 -83.1119 96° East 532 612 39,000  Level Cleveland Center
Sun 06:12:34 PM 42.3933 -82.9153 96° East 526 605 39,000  Level Cleveland Center
Sun 06:13:36 PM 42.3786 -82.7172 96° East 527 606 39,000  Level Cleveland Center
Sun 06:14:38 PM 42.3689 -82.5206 94° East 526 605 39,000  Level Cleveland Center
Sun 06:15:40 PM 42.3611 -82.2836 92° East 526 605 39,000  Level Cleveland Center
Sun 06:16:42 PM 42.3533 -82.0892 93° East 527 606 39,000  Level Cleveland Center
Sun 06:17:45 PM 42.3450 -81.8894 93° East 528 608 39,000  Level Cleveland Center
Sun 06:18:47 PM 42.3356 -81.6892 94° East 528 608 39,000  Level Cleveland Center
Sun 06:19:49 PM 42.3261 -81.4889 94° East 529 609 39,000  Level Cleveland Center
Sun 06:20:51 PM 42.3161 -81.2892 94° East 527 606 39,000  Level Cleveland Center
Sun 06:21:53 PM 42.3042 -81.0558 94° East 528 608 39,000  Level Cleveland Center
Sun 06:22:55 PM 42.2939 -80.8589 94° East 521 600 39,000  Level Cleveland Center
Sun 06:23:57 PM 42.2833 -80.6603 94° East 523 602 39,000  Level Cleveland Center
Sun 06:24:59 PM 42.2733 -80.4658 94° East 517 595 39,000  Level Cleveland Center
Sun 06:26:01 PM 42.2619 -80.2694 94° East 521 600 39,000  Level Cleveland Center
Sun 06:27:03 PM 42.2506 -80.0733 94° East 521 600 39,000  Level Cleveland Center
Sun 06:28:05 PM 42.2367 -79.8517 95° East 516 594 39,000  Level Cleveland Center
Sun 06:29:07 PM 42.2239 -79.6581 95° East 520 598 39,000  Level Cleveland Center
Sun 06:30:09 PM 42.2108 -79.4636 95° East 522 601 39,000  Level Cleveland Center
Sun 06:31:11 PM 42.1978 -79.2708 95° East 520 598 39,000  Level Cleveland Center
Sun 06:32:13 PM 42.1781 -79.0769 98° East 525 604 39,000  Level Cleveland Center
Sun 06:33:15 PM 42.1322 -78.8956 109° East 518 596 39,000  Level Cleveland Center
Sun 06:34:18 PM 42.0767 -78.6783 109° East 514 592 39,000  Level Cleveland Center
Sun 06:35:20 PM 42.0314 -78.4967 108° East 514 592 39,000  Level Cleveland Center
Sun 06:36:22 PM 41.9850 -78.3156 109° East 514 592 39,000  Level Cleveland Center
Sun 06:37:24 PM 41.9358 -78.1228 109° East 516 594 39,000  Level Cleveland Center
Sun 06:38:26 PM 41.8911 -77.9528 109° East 515 593 39,000  Level Cleveland Center
Sun 06:39:02 PM 41.8592 -77.8364 110° East 522 601 39,000  Level New York Center
Sun 06:40:02 PM 41.8114 -77.6531 109° East 522 601 39,000  Level New York Center
Sun 06:41:02 PM 41.7636 -77.4700 109° East 522 601 39,000  Level New York Center
Sun 06:42:02 PM 41.7153 -77.2903 110° East 522 601 39,000  Level New York Center
Sun 06:43:02 PM 41.6667 -77.1106 110° East 522 601 39,000  Level New York Center
Sun 06:44:02 PM 41.6181 -76.9283 110° East 522 601 39,000  Level New York Center
Sun 06:45:02 PM 41.5686 -76.7517 110° East 517 595 39,000  Level New York Center
Sun 06:46:02 PM 41.5178 -76.5589 109° East 517 595 39,000 -350 Level New York Center
Sun 06:47:02 PM 41.4742 -76.3833 108° East 506 582 38,300 -850 Descending New York Center
Sun 06:48:02 PM 41.4181 -76.2044 113° Southeast 506 582 37,300 -1,250 Descending New York Center
Sun 06:49:02 PM 41.3714 -76.0347 110° East 521 600 35,800 -1,850 Descending New York Center
Sun 06:50:02 PM 41.3206 -75.8622 111° Southeast 515 593 33,600 -2,700 Descending New York Center
Sun 06:51:02 PM 41.2700 -75.6817 110° East 515 593 30,400 -3,650 Descending New York Center
Sun 06:52:02 PM 41.2086 -75.5008 114° Southeast 526 605 26,300 -3,550 Descending New York Center
Sun 06:53:02 PM 41.1489 -75.3231 114° Southeast 526 605 23,300 -1,650 Descending New York Center
Sun 06:54:02 PM 41.0906 -75.1539 115° Southeast 521 600 23,000 -629 Descending New York Center
Sun 06:59:52 PM 40.9001 -74.1145 115° Southeast 366 421 19,000 -667 Descending FlightAware ADS-B
Sun 07:00:02 PM 40.8876 -74.0948 130° Southeast 358 412 19,000  Level FlightAware ADS-B
Sun 07:00:14 PM 40.8732 -74.0799 142° Southeast 349 402 19,000  Level FlightAware ADS-B
Sun 07:00:25 PM 40.8575 -74.0696 154° Southeast 341 392 19,000 -1,156 Level FlightAware ADS-B
Sun 07:02:03 PM 40.7194 -74.0104 162° South 326 375 16,900 -1,338 Descending FlightAware ADS-B
Sun 07:03:02 PM 40.6431 -73.9819 162° South 336 387 15,500 -1,765 Descending New York Center
Sun 07:04:02 PM 40.5525 -73.9422 162° South 318 366 13,400 -2,150 Descending New York Center
Sun 07:05:02 PM 40.4822 -73.9144 163° South 311 358 11,200 -2,177 Descending New York Center
Sun 07:06:06 PM 40.4000 -73.8500 149° Southeast 294 338 8,900 -2,081 Descending New York TRACON
Sun 07:07:06 PM 40.3500 -73.7833 135° Southeast 295 339 6,900 -1,850 Descending New York TRACON
Sun 07:08:06 PM 40.3167 -73.6833 114° Southeast 299 344 5,200 -1,448 Descending New York TRACON
Sun 07:09:02 PM 40.3711 -73.6150 44° Northeast 225 259 4,100 -621 Descending New York Center
Sun 07:10:02 PM 40.4306 -73.5711 29° Northeast 240 276 4,000 -50 Descending New York Center
Sun 07:11:02 PM 40.5028 -73.5169 30° Northeast 265 305 4,000  Level New York Center
Sun 07:12:06 PM 40.5667 -73.4667 31° Northeast 272 313 4,000  Level New York TRACON
Sun 07:13:06 PM 40.6500 -73.4333 17° North 264 304 4,000  Level New York TRACON
Sun 07:14:06 PM 40.7167 -73.4333 360° North 267 307 4,000 -158 Level New York TRACON
Sun 07:15:00 PM 40.7500 -73.4833 311° West 202 232 3,700 -500 Descending New York TRACON
Sun 07:16:06 PM 40.7833 -73.5500 303° West 191 220 3,000 -333 Descending New York TRACON
Sun 07:17:06 PM 40.8000 -73.6167 288° West 186 214 3,000  Level New York TRACON
Sun 07:18:00 PM 40.7833 -73.6500 237° Southwest 161 185 3,000 -421 Level New York TRACON
Sun 07:19:00 PM 40.7500 -73.6833 217° Southwest 160 184 2,200 -800 Descending New York TRACON
Sun 07:20:00 PM 40.7000 -73.7000 194° South 142 163 1,400 -700 Descending New York TRACON
Sun 07:21:00 PM 40.6833 -73.7333 237° Southwest 122 140 800 -600 Descending New York TRACON

Login

Don't have an account? Register now (free) for customized features, flight alerts, and more!